Terminal Aerodrome Forecast
Issued by NWS

Home | Current Version | Previous Version | Text Only | Print | Product List | Glossary On
Versions: 1 2 3 4 5 6 7 8 9 10 11 12 13 14 15 16 17 18 19
000
FTUS41 KPBZ 072320
TAFDUJ
TAF
KDUJ 072320Z 0800/0824 24011KT P6SM BKN100
     FM081300 25012G20KT P6SM OVC015
     FM081800 26012G25KT P6SM VCSH OVC010=

USA.gov is the U.S. government's official web portal to all federal, state and local government web resources and services.